Time;durP1;ratioP1;P1;durP2;ratioP2;P2;SDS_P1;SDS_P2;PMS_P1;PMS_P2;Temp;Humidity;BMP_temperature;BMP_pressure;BME280_temperature;BME280_humidity;BME280_pressure;Samples;Min_cycle;Max_cycle;Signal;HPM_P1;HPM_P2
2021/08/29 00:10:05;;;;;;;50.08;22.73;;;;;;;14.35;100.00;100136.56;727230;1199;115270;-78
2021/08/29 00:25:08;;;;;;;73.95;37.13;;;;;;;14.32;100.00;100128.99;722531;1197;115195;-76
2021/08/29 00:40:10;;;;;;;73.55;42.25;;;;;;;14.20;100.00;100125.00;714341;1194;114816;-77
2021/08/29 00:55:12;;;;;;;35.70;19.27;;;;;;;14.01;100.00;100128.77;713756;1176;114928;-79
2021/08/29 01:10:20;;;;;;;27.33;15.63;;;;;;;13.63;100.00;100129.98;714006;1187;114696;-76
2021/08/29 01:25:52;;;;;;;23.67;15.57;;;;;;;13.49;100.00;100120.03;714354;1200;114966;-76
2021/08/29 01:40:55;;;;;;;20.17;13.17;;;;;;;13.27;100.00;100137.18;713939;1199;115514;-76
2021/08/29 01:55:57;;;;;;;23.50;13.35;;;;;;;13.15;100.00;100136.63;713856;1176;114965;-78
2021/08/29 02:11:01;;;;;;;21.63;13.75;;;;;;;13.00;100.00;100139.00;713858;1200;114697;-76
2021/08/29 02:26:03;;;;;;;24.93;14.18;;;;;;;12.82;100.00;100152.20;714499;1199;114995;-76
2021/08/29 02:41:05;;;;;;;26.60;14.93;;;;;;;12.82;100.00;100146.94;714519;1200;114515;-77
2021/08/29 02:56:08;;;;;;;27.33;12.87;;;;;;;12.63;100.00;100142.69;714475;1200;115004;-77
2021/08/29 03:11:11;;;;;;;16.67;10.87;;;;;;;12.63;100.00;100140.88;714610;1177;114341;-76
2021/08/29 03:26:13;;;;;;;16.23;10.73;;;;;;;12.86;100.00;100135.11;714575;1199;114364;-75
2021/08/29 03:41:18;;;;;;;18.95;12.13;;;;;;;13.07;100.00;100142.66;714676;1200;114459;-77
2021/08/29 03:56:21;;;;;;;20.40;12.78;;;;;;;13.11;100.00;100149.27;714624;1199;114327;-76
2021/08/29 04:11:30;;;;;;;15.10;9.93;;;;;;;13.14;100.00;100150.77;714556;1186;115024;-76
2021/08/29 04:26:32;;;;;;;21.45;12.40;;;;;;;13.34;100.00;100148.73;714176;1202;114210;-76
2021/08/29 04:41:36;;;;;;;23.83;13.18;;;;;;;13.56;100.00;100133.41;714141;1199;114738;-76
2021/08/29 04:56:38;;;;;;;19.45;11.78;;;;;;;13.80;100.00;100112.41;714234;1177;115601;-76
2021/08/29 05:11:41;;;;;;;15.13;10.27;;;;;;;13.96;100.00;100119.53;714159;1177;114409;-78
2021/08/29 05:26:43;;;;;;;15.73;11.10;;;;;;;14.19;100.00;100132.10;714127;1199;115295;-78
2021/08/29 05:41:45;;;;;;;15.38;10.75;;;;;;;14.58;100.00;100128.84;714202;1202;114298;-77
2021/08/29 05:56:47;;;;;;;21.77;12.38;;;;;;;14.87;100.00;100111.66;714892;1175;115028;-79
2021/08/29 06:11:50;;;;;;;22.58;13.68;;;;;;;15.43;100.00;100111.69;715022;1202;115797;-77
2021/08/29 06:26:52;;;;;;;28.48;14.10;;;;;;;15.98;100.00;100090.61;714623;1199;114660;-77
2021/08/29 06:41:54;;;;;;;24.80;16.50;;;;;;;16.69;100.00;100090.38;714847;1176;114892;-76
2021/08/29 06:56:56;;;;;;;26.95;17.98;;;;;;;17.17;100.00;100070.71;714809;1199;114283;-76
2021/08/29 07:11:59;;;;;;;26.80;18.35;;;;;;;17.44;100.00;100077.99;714988;1174;114296;-76
2021/08/29 07:27:01;;;;;;;27.23;17.83;;;;;;;17.96;100.00;100092.09;714624;1200;114334;-78
2021/08/29 07:42:03;;;;;;;27.23;18.53;;;;;;;18.42;100.00;100095.36;714710;1175;115225;-78
2021/08/29 07:57:06;;;;;;;24.93;15.93;;;;;;;18.84;100.00;100098.14;715790;1177;114399;-81
2021/08/29 08:12:09;;;;;;;22.25;16.03;;;;;;;18.93;100.00;100099.67;716600;1200;115345;-80
2021/08/29 08:27:11;;;;;;;24.03;16.87;;;;;;;18.90;100.00;100087.59;717327;1200;114749;-79
2021/08/29 08:42:17;;;;;;;20.73;14.05;;;;;;;19.62;100.00;100071.34;717906;1174;115601;-79
2021/08/29 08:57:19;;;;;;;21.07;13.10;;;;;;;19.91;100.00;100082.72;716130;1175;114177;-78
2021/08/29 09:12:27;;;;;;;12.18;8.83;;;;;;;20.20;100.00;100097.50;714852;1200;115755;-79
2021/08/29 09:27:30;;;;;;;12.50;9.23;;;;;;;20.20;100.00;100118.00;714828;1176;114054;-78
2021/08/29 09:42:43;;;;;;;11.60;8.53;;;;;;;20.38;100.00;100104.09;714898;1200;114786;-78
2021/08/29 09:57:46;;;;;;;12.80;8.85;;;;;;;20.35;100.00;100113.31;715468;1177;114005;-79
2021/08/29 10:12:50;;;;;;;11.50;8.33;;;;;;;20.57;100.00;100116.58;716726;1200;114245;-80
2021/08/29 10:28:07;;;;;;;8.13;6.20;;;;;;;20.76;100.00;100106.17;716245;1177;113984;-83
2021/08/29 10:43:09;;;;;;;8.85;6.08;;;;;;;21.09;100.00;100086.63;715509;1199;114113;-83
2021/08/29 10:58:20;;;;;;;9.93;7.23;;;;;;;21.05;100.00;100088.89;716931;1202;113946;-79
2021/08/29 11:13:28;;;;;;;10.73;5.90;;;;;;;21.40;100.00;100107.23;723742;1199;115495;-77
2021/08/29 11:28:31;;;;;;;5.47;4.37;;;;;;;22.19;99.78;100124.95;725561;1199;114276;-79
2021/08/29 11:43:37;;;;;;;6.20;4.05;;;;;;;23.61;95.94;100110.06;717049;1198;113808;-78
2021/08/29 11:58:44;;;;;;;6.58;5.50;;;;;;;24.35;90.04;100103.65;716882;1175;113871;-80
2021/08/29 12:13:46;;;;;;;7.33;5.83;;;;;;;22.65;88.74;100102.41;716920;1199;113940;-77
2021/08/29 12:29:00;;;;;;;9.15;5.08;;;;;;;22.53;90.63;100112.19;718391;1199;113692;-77
2021/08/29 12:44:06;;;;;;;9.90;6.45;;;;;;;22.21;91.11;100106.83;717595;1174;113393;-78
2021/08/29 12:59:09;;;;;;;7.03;5.17;;;;;;;22.57;91.38;100105.38;716574;1203;113863;-78
2021/08/29 13:14:27;;;;;;;6.25;4.33;;;;;;;22.01;89.76;100097.09;717784;1199;112944;-78
2021/08/29 13:29:41;;;;;;;7.55;4.20;;;;;;;21.82;89.50;100087.38;717716;1198;115409;-78
2021/08/29 13:44:44;;;;;;;5.33;3.47;;;;;;;21.66;91.88;100088.70;715034;1202;115060;-79
2021/08/29 13:59:46;;;;;;;6.80;4.20;;;;;;;21.43;92.90;100081.97;715161;1200;113597;-79
2021/08/29 14:14:49;;;;;;;4.70;3.60;;;;;;;22.31;92.64;100075.11;714932;1200;113769;-80
2021/08/29 14:29:52;;;;;;;6.90;3.93;;;;;;;24.00;89.06;100088.34;716367;1174;114208;-78
2021/08/29 14:44:55;;;;;;;5.15;3.88;;;;;;;28.58;79.88;100078.80;718255;1200;23171;-80
2021/08/29 14:59:58;;;;;;;3.75;3.33;;;;;;;27.37;74.57;100089.80;717092;1199;113569;-82
2021/08/29 15:15:00;;;;;;;3.57;2.87;;;;;;;24.28;76.42;100087.67;716824;1200;113965;-87
2021/08/29 15:30:03;;;;;;;6.73;5.53;;;;;;;23.45;78.15;100091.92;716497;1199;115116;-80
2021/08/29 15:45:06;;;;;;;20.05;12.50;;;;;;;22.67;79.73;100094.97;716832;1198;113830;-80
2021/08/29 16:00:09;;;;;;;7.35;4.85;;;;;;;22.92;80.49;100086.11;717307;1199;114170;-79
2021/08/29 16:15:15;;;;;;;10.48;6.53;;;;;;;22.44;80.58;100098.28;716964;1177;113686;-79
2021/08/29 16:30:18;;;;;;;10.35;7.45;;;;;;;22.03;84.55;100094.23;715644;1199;114045;-80
2021/08/29 16:45:21;;;;;;;7.10;5.13;;;;;;;21.72;86.70;100091.33;714863;1199;114728;-81
2021/08/29 17:00:24;;;;;;;6.83;3.60;;;;;;;21.04;90.05;100092.57;715853;1174;114077;-87
2021/08/29 17:15:26;;;;;;;6.78;5.15;;;;;;;20.15;93.04;100109.80;717013;1176;113868;-79
2021/08/29 17:30:29;;;;;;;29.18;13.93;;;;;;;19.58;96.24;100110.83;716795;1202;114912;-79
2021/08/29 17:45:32;;;;;;;15.53;10.63;;;;;;;18.72;100.00;100122.58;714754;1174;114419;-79
2021/08/29 18:00:35;;;;;;;16.20;11.73;;;;;;;18.23;100.00;100121.55;715641;1199;115648;-78
2021/08/29 18:15:39;;;;;;;16.30;10.58;;;;;;;18.00;100.00;100136.82;715653;1199;114400;-79
2021/08/29 18:30:42;;;;;;;22.75;14.35;;;;;;;18.01;100.00;100135.81;715784;1199;115164;-78
2021/08/29 18:45:45;;;;;;;19.58;14.23;;;;;;;17.85;100.00;100156.22;715558;1199;114541;-79
2021/08/29 19:00:48;;;;;;;14.93;10.37;;;;;;;17.68;100.00;100154.80;715913;1175;114361;-87
2021/08/29 19:15:54;;;;;;;21.73;15.28;;;;;;;17.85;100.00;100153.56;716778;1199;114366;-76
2021/08/29 19:30:56;;;;;;;64.88;30.03;;;;;;;17.69;100.00;100164.41;715487;1174;114819;-77
2021/08/29 19:46:00;;;;;;;16.55;12.10;;;;;;;17.60;100.00;100156.52;715700;1199;115080;-78
2021/08/29 20:01:03;;;;;;;30.25;17.05;;;;;;;17.67;100.00;100163.75;718165;1177;114337;-77
2021/08/29 20:16:09;;;;;;;58.70;31.70;;;;;;;17.54;100.00;100156.44;714904;1199;114771;-76
2021/08/29 20:31:11;;;;;;;43.78;24.70;;;;;;;17.52;100.00;100161.13;714191;1182;114812;-77
2021/08/29 20:46:14;;;;;;;25.55;16.33;;;;;;;17.45;100.00;100156.54;713981;1199;116442;-77
2021/08/29 21:01:16;;;;;;;25.80;15.10;;;;;;;17.27;100.00;100167.50;713938;1178;114971;-78
2021/08/29 21:16:19;;;;;;;32.57;17.77;;;;;;;17.10;100.00;100160.73;713872;1200;114500;-76
2021/08/29 21:31:22;;;;;;;25.65;17.18;;;;;;;17.05;100.00;100157.80;714250;1202;114279;-77
2021/08/29 21:46:24;;;;;;;47.50;24.27;;;;;;;17.32;100.00;100159.02;714336;1198;115273;-79
2021/08/29 22:01:26;;;;;;;30.88;18.60;;;;;;;17.25;100.00;100140.37;714492;1199;115321;-79
2021/08/29 22:16:29;;;;;;;46.55;22.50;;;;;;;17.12;100.00;100142.83;715599;1198;115561;-83
2021/08/29 22:31:31;;;;;;;22.10;13.65;;;;;;;16.99;100.00;100132.04;734464;1198;114826;-80
2021/08/29 22:46:33;;;;;;;22.17;14.53;;;;;;;16.99;100.00;100139.99;715300;1199;115668;-82
2021/08/29 23:01:36;;;;;;;38.28;20.35;;;;;;;16.88;100.00;100128.80;714021;1174;114324;-80
2021/08/29 23:16:40;;;;;;;23.48;13.88;;;;;;;16.80;100.00;100132.34;714217;1176;114749;-80
2021/08/29 23:31:43;;;;;;;26.00;14.78;;;;;;;16.60;100.00;100120.59;714266;1199;114818;-81
2021/08/29 23:46:45;;;;;;;16.90;11.50;;;;;;;16.59;100.00;100127.72;714056;1199;116356;-81
